»·PEaware :: N413C KMRY-KWVI

N413C :: KMRY-KWVI

FLIGHT INFORMATION

Flight Status: Arrived
Operator: Privately registered:
United States
More flights under this callsign
Pilot: Alec D. (17934)
Aircraft: BEECH AIRCRAFT BONANZA
(BE35)
More flights by this aircraft type
Origin: KMRY Monterey Peninsula
United States
Destination: KWVI Watsonville Mun
United States
More flights between these airports :: More routes between these airports
Route: +MRY5 SNS
File this flight plan on PilotEdge
Remarks:
Altitude:
(Current/Filed)
5,000ft
Speed:
(Current/Filed)
160kts
Departed: 01-Jul-20 09:58 AM
Arrived: 01-Jul-20 10:23 AM
Distance/Time
Traveled:
21nm/0:25
Distance/Time
To Go:
Arrived

Flight Plot

Page will automatically refresh every two minutes.

Flight plan parsing failed; only flown route is shown


Map Options




Map Legend


Flown Route
Filed Route
Departure Airport
Arrival Airport
Navaid (VOR, NDB)
Fix

Horizontal Profiles

Position Reports

Time Latitude Longitude Heading Altitude Ground
Speed
01-Jul-20 09:38 36.588629 -121.854511 343 260ft 0kts
01-Jul-20 09:39 36.588629 -121.854511 343 260ft 0kts
01-Jul-20 09:40 36.588629 -121.854511 343 260ft 0kts
01-Jul-20 09:41 36.588629 -121.854511 343 260ft 0kts
01-Jul-20 09:42 36.588629 -121.854511 343 260ft 0kts
01-Jul-20 09:43 36.588636 -121.854514 343 260ft 0kts
01-Jul-20 09:44 36.588643 -121.854516 343 260ft 0kts
01-Jul-20 09:45 36.588651 -121.854519 343 260ft 0kts
01-Jul-20 09:46 36.588659 -121.854522 343 260ft 0kts
01-Jul-20 09:47 36.588666 -121.854525 343 260ft 0kts
01-Jul-20 09:48 36.588674 -121.854527 343 260ft 0kts
01-Jul-20 09:49 36.588824 -121.854426 51 260ft 5kts
01-Jul-20 09:50 36.588303 -121.851319 113 260ft 13kts
01-Jul-20 09:51 36.586736 -121.846828 113 260ft 16kts
01-Jul-20 09:52 36.584696 -121.840920 113 260ft 19kts
01-Jul-20 09:53 36.582874 -121.836523 62 260ft 0kts
01-Jul-20 09:54 36.582880 -121.836508 62 260ft 0kts
01-Jul-20 09:55 36.582883 -121.836500 62 260ft 0kts
01-Jul-20 09:56 36.582616 -121.834894 100 260ft 13kts
01-Jul-20 09:57 36.586179 -121.841724 291 306ft 86kts
01-Jul-20 09:58 36.598801 -121.871210 328 1377ft 104kts
01-Jul-20 09:59 36.625982 -121.880011 341 2539ft 98kts
01-Jul-20 10:00 36.646058 -121.867130 89 3532ft 120kts
01-Jul-20 10:01 36.647498 -121.823189 83 4021ft 140kts
01-Jul-20 10:02 36.652878 -121.771615 81 4067ft 159kts
01-Jul-20 10:03 36.654936 -121.716576 84 3964ft 156kts
01-Jul-20 10:04 36.660603 -121.664067 78 3993ft 152kts
01-Jul-20 10:05 36.689087 -121.644289 315 4035ft 155kts
01-Jul-20 10:06 36.717730 -121.683386 313 4041ft 151kts
01-Jul-20 10:07 36.743186 -121.721750 310 3912ft 139kts
01-Jul-20 10:08 36.767890 -121.757294 312 4054ft 139kts
01-Jul-20 10:09 36.793198 -121.794168 309 4032ft 137kts
01-Jul-20 10:10 36.818845 -121.829439 310 4004ft 138kts
01-Jul-20 10:11 36.827317 -121.868941 227 4009ft 136kts
01-Jul-20 10:12 36.807453 -121.908411 257 3639ft 134kts
01-Jul-20 10:13 36.789765 -121.943107 171 3262ft 131kts
01-Jul-20 10:14 36.789337 -121.903525 48 3111ft 126kts
01-Jul-20 10:15 36.818635 -121.883812 33 2781ft 118kts
01-Jul-20 10:16 36.845339 -121.861233 32 2195ft 111kts
01-Jul-20 10:17 36.871594 -121.841086 32 1655ft 112kts
01-Jul-20 10:18 36.897588 -121.820540 31 1182ft 111kts
01-Jul-20 10:19 36.920627 -121.797234 60 793ft 108kts
01-Jul-20 10:20 36.936916 -121.767187 23 638ft 97kts
01-Jul-20 10:21 36.939941 -121.787221 210 239ft 79kts
01-Jul-20 10:22 36.931609 -121.793612 175 163ft 12kts
01-Jul-20 10:23 36.931181 -121.792629 36 163ft 8kts
01-Jul-20 10:24 36.933896 -121.790444 32 163ft 14kts
01-Jul-20 10:25 36.934013 -121.789306 28 163ft 0kts
01-Jul-20 10:26 36.934013 -121.789306 28 163ft 0kts
01-Jul-20 10:28 36.934013 -121.789306 28 163ft 0kts
01-Jul-20 10:29 36.934013 -121.789306 28 163ft 0kts
01-Jul-20 10:30 36.934013 -121.789306 28 163ft 0kts
01-Jul-20 10:31 36.934013 -121.789306 28 163ft 0kts
01-Jul-20 10:32 36.934013 -121.789306 28 163ft 0kts
01-Jul-20 10:33 36.934013 -121.789306 28 163ft 0kts
01-Jul-20 10:34 36.934013 -121.789306 28 163ft 0kts
01-Jul-20 10:35 36.934013 -121.789306 28 163ft 0kts

Navigation Log

Ident Type
Flight plan parsing failed, navigation log unavailable